Harristown, Illinois
Current Conditions -  °F | °C
As of 4:54 PM on Friday 31 Oct 2014 (Local Time) from KDEC Reporting Station
Few Clouds Few Clouds  
Wind Chill: 31°   Ceiling: Unl
Heat Index: 41°   Visibility: 10mi
Dew Point: 23°   Wind: 24mph
Humidity: 49%   Direction: 350°N
Pressure: 30.26"   Gusts: 36mph
Location:  39.85°N, 89.08°W
Report Text: KDEC 312154Z 35021G31KT 10SM FEW048 05/M05 A3026 RMK AO2 PK WND 35035/2058 SLP251 T00501050
Loading
Personal Weather Stations






























Interactive Weather Map
Tropical Storm Tracking
New forecast layout! Learn more

10-Day Weather Forecast

Advertisements
Track Severe Weather on mobile